This is the latest recevied weather packets stored in our database for station/object EA4IAJ-12. If no packets are shown the sender has not sent any weather packets the latest 10 day(s).
| Time | Temp. | Humidity | Pressure | Rain* | Wind** | Luminosity | Snow |
|---|---|---|---|---|---|---|---|
| 1777222804 | 32.22° C | 33% | 1056.9 hPa | - | - | - | - |
| 1777221903 | 33.33° C | 34% | 1060.9 hPa | - | - | - | - |
| 1777221003 | 32.78° C | 35% | 1060.3 hPa | - | - | - | - |
| 1777220102 | 31.67° C | 35% | 1055 hPa | - | - | - | - |
| 1777219202 | 30° C | 36% | 1049.7 hPa | - | - | - | - |
| 1777218313 | 32.78° C | 37% | 1061.6 hPa | - | - | - | - |
| 1777217412 | 32.78° C | 38% | 1060.4 hPa | - | - | - | - |
| 1777216512 | 31.67° C | 39% | 1056.5 hPa | - | - | - | - |
| 1777215611 | 33.89° C | 41% | 1067.9 hPa | - | - | - | - |
| 1777214710 | 31.11° C | 41% | 1056.7 hPa | - | - | - | - |
| 1777213810 | 31.11° C | 42% | 1056.4 hPa | - | - | - | - |
| 1777212909 | 31.67° C | 43% | 1059.1 hPa | - | - | - | - |
| 1777212009 | 31.11° C | 45% | 1057.8 hPa | - | - | - | - |
| 1777211108 | 32.22° C | 47% | 1061.7 hPa | - | - | - | - |
| 1777210208 | 32.22° C | 50% | 1063.1 hPa | - | - | - | - |
| 1777209307 | 34.44° C | 55% | 1074.2 hPa | - | - | - | - |
| 1777208407 | 34.44° C | 58% | 1074.2 hPa | - | - | - | - |
| 1777207506 | 33.33° C | 63% | 1071.2 hPa | - | - | - | - |
| 1777206606 | 33.89° C | 71% | 1075 hPa | - | - | - | - |
| 1777205705 | 35° C | 80% | 1080.6 hPa | - | - | - | - |
| 1777204805 | 32.78° C | 84% | 1073.8 hPa | - | - | - | - |
| 1777203905 | 31.11° C | 89% | 1066.6 hPa | - | - | - | - |
| 1777203004 | 33.33° C | 97% | 1076.1 hPa | - | - | - | - |
| 1777202104 | 31.67° C | 100% | 1071.7 hPa | - | - | - | - |
| 1777201203 | 32.22° C | 100% | 1075.3 hPa | - | - | - | - |
* Rain since midnight (hover to see other rain measurements)
** Current wind speed in m/s (hover to see current wind gust speed)